Decoded Metar for KMVL (MORRISVILLE in VT, USA) (IATA:MVL) | Meteo·Mobile Aviation Weather
aviador You're here:

KMVL Decoded Metar

MORRISVILLE in VT, USA
Report Time2018-09-18 14:54:00
UTC Time2018-09-18 15:34:30
Flight Rules vfr VFR
WindCalm
Visibility9999 m
Phenomena:N/A
Clouds:Few 036 Hf
Broken 048 Hf
Expected CloudBase > 2,000 ft AGL from Temp-Dew spread
Ceiling4,800 ft
Temp24°C (ISA +11)
Dew Point19°C (74% RH)
QNH1009 hPa
Density Alt2,418 ft
Elevation768 ft
Report Wrong Elevation
Raw Report
KMVL 181454Z AUTO 00000KT 10SM FEW036 BKN048 24/19 A2979 RMK AO2
SLP086 T02390189 56009=

Extra information for KMVL:More info

Metar Taf Metar & Taf Last 4 Metars F.Rules Stats Wind Profile Meteogram Temp Stats Airport Information Weather charts Add Link Nearby VenuesMetar ALERT Operation Metar Decoded Social comments

AIRNAV info for KMVL